Time;durP1;ratioP1;P1;durP2;ratioP2;P2;SDS_P1;SDS_P2;PMS_P1;PMS_P2;Temp;Humidity;BMP_temperature;BMP_pressure;BME280_temperature;BME280_humidity;BME280_pressure;Samples;Min_cycle;Max_cycle;Signal;HPM_P1;HPM_P2
2021/03/29 00:00:32;;;;;;;52.33;30.67;;;2.80;92.70;;;;;;4918463;29;20210;-84
2021/03/29 00:03:17;;;;;;;52.00;29.77;;;2.80;92.80;;;;;;4937731;29;20206;-82
2021/03/29 00:05:46;;;;;;;56.40;30.13;;;2.80;92.60;;;;;;4920086;29;20306;-84
2021/03/29 00:08:17;;;;;;;57.00;30.80;;;2.90;92.70;;;;;;4925908;29;20203;-83
2021/03/29 00:10:48;;;;;;;55.70;30.27;;;2.90;92.60;;;;;;4923840;29;20567;-83
2021/03/29 00:13:16;;;;;;;54.73;30.10;;;2.90;93.00;;;;;;4910186;29;20262;-83
2021/03/29 00:15:47;;;;;;;56.13;31.07;;;2.90;92.60;;;;;;4912369;29;20666;-84
2021/03/29 00:18:17;;;;;;;51.60;31.10;;;2.90;92.50;;;;;;4911293;29;20207;-84
2021/03/29 00:20:50;;;;;;;54.73;31.07;;;2.90;92.80;;;;;;4921813;29;20307;-84
2021/03/29 00:23:18;;;;;;;57.13;30.70;;;3.00;92.90;;;;;;4915176;29;20258;-82
2021/03/29 00:25:46;;;;;;;47.80;28.07;;;3.00;93.20;;;;;;4916426;29;20238;-84
2021/03/29 00:28:15;;;;;;;50.97;29.30;;;2.90;93.20;;;;;;4923224;29;20213;-84
2021/03/29 00:30:46;;;;;;;43.67;26.03;;;3.00;93.30;;;;;;4942780;29;20199;-82
2021/03/29 00:33:16;;;;;;;36.93;23.43;;;3.00;93.00;;;;;;4923830;29;20224;-84
2021/03/29 00:35:48;;;;;;;40.30;24.87;;;3.10;92.80;;;;;;4920795;29;20436;-83
2021/03/29 00:38:17;;;;;;;38.40;22.67;;;3.20;91.90;;;;;;4912467;29;20285;-83
2021/03/29 00:40:50;;;;;;;40.73;23.07;;;3.30;91.40;;;;;;4918716;29;20647;-83
2021/03/29 00:43:20;;;;;;;39.27;24.17;;;3.40;91.10;;;;;;4911774;29;20644;-84
2021/03/29 00:45:50;;;;;;;41.07;24.97;;;3.50;90.80;;;;;;4918882;29;20633;-84
2021/03/29 00:48:19;;;;;;;48.23;24.93;;;3.60;90.30;;;;;;4915003;29;20716;-82
2021/03/29 00:50:51;;;;;;;54.40;27.23;;;3.60;90.30;;;;;;4915434;29;20639;-82
2021/03/29 00:53:19;;;;;;;55.10;28.90;;;3.70;90.20;;;;;;4926702;29;20253;-84
2021/03/29 00:55:48;;;;;;;48.70;27.53;;;3.80;90.10;;;;;;4934927;29;20234;-83
2021/03/29 00:58:23;;;;;;;48.50;27.63;;;3.70;90.10;;;;;;4929676;29;20258;-84
2021/03/29 01:00:54;;;;;;;52.37;28.10;;;3.70;90.40;;;;;;4925913;29;20212;-86
2021/03/29 01:03:26;;;;;;;55.70;28.87;;;3.70;90.70;;;;;;4934473;29;20202;-85
2021/03/29 01:06:00;;;;;;;53.20;28.90;;;3.60;90.80;;;;;;4942869;29;20236;-83
2021/03/29 01:08:29;;;;;;;37.60;22.27;;;3.60;90.70;;;;;;4925827;29;20214;-83
2021/03/29 01:11:00;;;;;;;44.87;24.60;;;3.70;90.50;;;;;;4924586;29;20202;-83
2021/03/29 01:13:29;;;;;;;29.33;16.97;;;3.70;90.40;;;;;;4927965;29;20438;-85
2021/03/29 01:15:58;;;;;;;24.67;15.87;;;3.90;90.00;;;;;;4922103;29;20206;-84
2021/03/29 01:18:28;;;;;;;25.67;15.53;;;4.10;88.60;;;;;;4914355;29;20258;-83
2021/03/29 01:21:08;;;;;;;24.40;16.03;;;4.20;87.90;;;;;;4918978;29;20291;-83
2021/03/29 01:23:38;;;;;;;24.90;14.57;;;4.50;86.70;;;;;;4922519;29;20208;-83
2021/03/29 01:26:13;;;;;;;22.57;15.10;;;4.50;85.40;;;;;;4914237;29;20249;-81
2021/03/29 01:28:43;;;;;;;24.00;15.43;;;4.80;84.60;;;;;;4915189;29;20212;-83
2021/03/29 01:31:11;;;;;;;26.07;15.93;;;4.90;83.70;;;;;;4917183;29;20521;-84
2021/03/29 01:33:40;;;;;;;24.17;15.37;;;5.00;83.60;;;;;;4915890;29;20607;-83
2021/03/29 01:36:08;;;;;;;25.03;15.57;;;5.00;83.40;;;;;;4936697;29;20196;-82
2021/03/29 01:38:37;;;;;;;20.63;14.60;;;5.00;83.30;;;;;;4918705;29;20263;-83
2021/03/29 01:41:08;;;;;;;23.50;14.67;;;5.10;83.20;;;;;;4929154;29;20210;-81
2021/03/29 01:43:37;;;;;;;24.13;15.13;;;5.10;83.20;;;;;;4937222;29;21149;-83
2021/03/29 01:46:05;;;;;;;20.87;14.53;;;5.10;83.40;;;;;;4924243;29;20248;-83
2021/03/29 01:48:34;;;;;;;25.97;15.80;;;4.90;83.50;;;;;;4920556;29;20201;-84
2021/03/29 01:51:02;;;;;;;25.13;15.10;;;5.00;83.90;;;;;;4913367;29;20843;-83
2021/03/29 01:53:32;;;;;;;26.67;15.73;;;4.90;84.40;;;;;;4917688;29;20206;-84
2021/03/29 01:56:00;;;;;;;22.90;15.27;;;4.90;84.30;;;;;;4912546;29;20230;-81
2021/03/29 01:58:29;;;;;;;25.83;15.80;;;4.80;84.50;;;;;;4913346;29;20586;-82
2021/03/29 02:00:59;;;;;;;29.10;16.70;;;4.80;84.90;;;;;;4919834;29;20202;-84
2021/03/29 02:03:29;;;;;;;24.50;15.90;;;4.90;84.90;;;;;;4896974;29;20218;-83
2021/03/29 02:05:58;;;;;;;25.03;15.97;;;4.70;85.00;;;;;;4897579;29;20281;-84
2021/03/29 02:08:27;;;;;;;25.73;15.50;;;4.70;85.20;;;;;;4905699;29;20212;-85
2021/03/29 02:10:56;;;;;;;25.53;16.23;;;4.60;85.20;;;;;;4913242;29;20208;-83
2021/03/29 02:13:27;;;;;;;28.90;15.17;;;4.50;85.20;;;;;;4903431;29;20217;-83
2021/03/29 02:15:58;;;;;;;27.80;16.23;;;4.60;85.60;;;;;;4917797;29;20202;-82
2021/03/29 02:18:29;;;;;;;27.67;16.37;;;4.50;85.50;;;;;;4924288;29;20204;-83
2021/03/29 02:20:59;;;;;;;25.37;15.80;;;4.50;85.60;;;;;;4918641;29;20211;-82
2021/03/29 02:23:29;;;;;;;28.80;15.57;;;4.60;85.70;;;;;;4935441;29;20210;-84
2021/03/29 02:26:00;;;;;;;29.47;15.40;;;4.50;85.60;;;;;;4924028;29;20313;-83
2021/03/29 02:28:28;;;;;;;27.00;16.03;;;4.50;85.50;;;;;;4919082;29;20223;-82
2021/03/29 02:30:58;;;;;;;25.87;16.23;;;4.60;85.30;;;;;;4930883;29;20812;-82
2021/03/29 02:33:26;;;;;;;24.90;15.00;;;4.60;85.40;;;;;;4934701;29;20219;-82
2021/03/29 02:35:55;;;;;;;25.37;15.13;;;4.60;85.60;;;;;;4937487;29;20420;-83
2021/03/29 02:38:23;;;;;;;24.37;15.83;;;4.60;85.40;;;;;;4920043;29;20261;-84
2021/03/29 02:40:52;;;;;;;21.30;15.00;;;4.60;85.30;;;;;;4918218;29;20505;-84
2021/03/29 02:43:21;;;;;;;28.43;16.07;;;4.60;85.30;;;;;;4928239;29;20712;-82
2021/03/29 02:45:53;;;;;;;22.30;15.90;;;4.60;85.30;;;;;;4914767;29;20989;-83
2021/03/29 02:48:24;;;;;;;23.13;14.17;;;4.60;85.50;;;;;;4903203;29;20951;-82
2021/03/29 02:50:56;;;;;;;29.20;16.03;;;4.60;85.50;;;;;;4919576;29;20309;-83
2021/03/29 02:53:26;;;;;;;25.93;15.40;;;4.60;85.70;;;;;;4924810;29;20227;-83
2021/03/29 02:55:56;;;;;;;27.60;16.80;;;4.60;85.60;;;;;;4927571;29;20202;-83
2021/03/29 02:58:27;;;;;;;21.43;14.00;;;4.60;85.70;;;;;;4922699;29;20729;-79
2021/03/29 03:00:56;;;;;;;24.63;15.63;;;4.60;85.80;;;;;;4927254;29;20894;-84
2021/03/29 03:03:25;;;;;;;25.10;14.60;;;4.60;85.70;;;;;;4927251;29;20208;-84
2021/03/29 03:05:55;;;;;;;22.37;14.33;;;4.60;85.70;;;;;;4922213;29;20238;-83
2021/03/29 03:08:24;;;;;;;23.97;15.13;;;4.60;85.40;;;;;;4927430;29;20209;-83
2021/03/29 03:10:52;;;;;;;24.70;15.03;;;4.60;85.40;;;;;;4922297;29;20432;-81
2021/03/29 03:13:20;;;;;;;25.30;13.83;;;4.50;85.40;;;;;;4937780;29;20212;-84
2021/03/29 03:15:48;;;;;;;24.23;14.43;;;4.50;85.40;;;;;;4933971;29;20233;-82
2021/03/29 03:18:16;;;;;;;18.87;13.13;;;4.50;85.50;;;;;;4938664;29;20221;-81
2021/03/29 03:20:43;;;;;;;24.27;14.53;;;4.60;85.20;;;;;;4930213;29;20209;-82
2021/03/29 03:23:17;;;;;;;22.80;14.77;;;4.60;85.40;;;;;;4935899;29;20242;-83
2021/03/29 03:25:49;;;;;;;22.50;14.13;;;4.60;85.30;;;;;;4925834;29;20219;-82
2021/03/29 03:28:19;;;;;;;24.33;14.20;;;4.70;85.30;;;;;;4921134;29;20702;-82
2021/03/29 03:30:48;;;;;;;26.40;15.80;;;4.70;85.30;;;;;;4931744;29;20575;-85
2021/03/29 03:33:18;;;;;;;28.20;15.60;;;4.80;85.30;;;;;;4945901;29;20206;-83
2021/03/29 03:35:48;;;;;;;25.50;14.93;;;4.70;85.30;;;;;;4942475;29;20205;-83
2021/03/29 03:38:20;;;;;;;34.83;16.00;;;4.70;85.30;;;;;;4947780;29;20200;-82
2021/03/29 03:40:50;;;;;;;26.83;15.33;;;4.70;85.40;;;;;;4937695;29;20493;-85
2021/03/29 03:43:21;;;;;;;27.60;16.27;;;4.70;85.70;;;;;;4947150;29;20221;-83
2021/03/29 03:45:53;;;;;;;26.60;14.60;;;4.70;85.80;;;;;;4927856;29;20224;-81
2021/03/29 03:48:22;;;;;;;25.53;16.20;;;4.80;85.80;;;;;;4919674;29;20209;-84
2021/03/29 03:50:51;;;;;;;28.63;15.90;;;4.80;85.70;;;;;;4929139;29;20202;-84
2021/03/29 03:53:21;;;;;;;28.53;15.47;;;4.80;85.40;;;;;;4937844;29;20203;-82
2021/03/29 03:55:54;;;;;;;25.80;14.80;;;4.90;85.40;;;;;;4938682;29;20215;-85
2021/03/29 03:58:22;;;;;;;24.47;15.03;;;5.00;85.00;;;;;;4932803;29;20468;-83
2021/03/29 04:00:50;;;;;;;24.10;14.77;;;5.00;84.80;;;;;;4939459;29;20352;-83
2021/03/29 04:03:19;;;;;;;22.80;14.33;;;5.10;84.80;;;;;;4933346;29;20209;-86
2021/03/29 04:05:47;;;;;;;19.23;14.03;;;5.10;84.60;;;;;;4923047;29;20237;-83
2021/03/29 04:08:35;;;;;;;27.73;15.03;;;5.10;84.50;;;;;;4922062;29;20492;-84
2021/03/29 04:11:05;;;;;;;26.50;15.43;;;5.10;84.40;;;;;;4913195;29;20461;-84
2021/03/29 04:13:34;;;;;;;20.73;14.13;;;5.10;84.40;;;;;;4915533;29;20199;-84
2021/03/29 04:16:04;;;;;;;24.37;14.90;;;5.20;84.40;;;;;;4909010;29;20226;-83
2021/03/29 04:18:32;;;;;;;25.70;13.90;;;5.10;84.30;;;;;;4922913;29;20199;-82
2021/03/29 04:21:01;;;;;;;33.90;16.13;;;5.10;84.40;;;;;;4929430;29;20218;-83
2021/03/29 04:23:30;;;;;;;27.57;15.90;;;5.10;84.50;;;;;;4932742;29;20225;-85
2021/03/29 04:25:59;;;;;;;30.07;15.57;;;5.00;84.70;;;;;;4939596;29;20218;-85
2021/03/29 04:28:29;;;;;;;24.43;15.87;;;5.10;85.00;;;;;;4919893;29;20230;-83
2021/03/29 04:30:57;;;;;;;29.20;15.43;;;5.00;85.00;;;;;;4936304;29;20206;-85
2021/03/29 04:33:25;;;;;;;24.73;15.07;;;5.10;85.30;;;;;;4944485;29;20226;-84
2021/03/29 04:35:55;;;;;;;24.67;15.97;;;5.10;85.60;;;;;;4926499;29;20759;-83
2021/03/29 04:38:22;;;;;;;26.20;14.80;;;5.20;85.70;;;;;;4921390;29;20323;-82
2021/03/29 04:40:50;;;;;;;22.10;15.30;;;5.20;86.10;;;;;;4918818;29;20784;-83
2021/03/29 04:43:19;;;;;;;30.40;15.53;;;5.10;85.90;;;;;;4937024;29;20198;-83
2021/03/29 04:45:47;;;;;;;20.77;15.57;;;5.10;85.90;;;;;;4931755;29;20253;-82
2021/03/29 04:48:16;;;;;;;23.60;15.80;;;5.20;85.90;;;;;;4914538;29;20217;-83
2021/03/29 04:50:44;;;;;;;21.20;14.87;;;5.30;86.00;;;;;;4922349;29;20216;-84
2021/03/29 04:53:12;;;;;;;23.83;15.80;;;5.20;86.20;;;;;;4910405;29;20250;-84
2021/03/29 04:55:40;;;;;;;22.00;14.83;;;5.20;86.10;;;;;;4916906;29;20600;-83
2021/03/29 04:58:10;;;;;;;22.37;15.13;;;5.30;85.90;;;;;;4908245;29;20219;-83
2021/03/29 05:00:38;;;;;;;27.43;16.07;;;5.30;86.00;;;;;;4909157;29;20322;-84
2021/03/29 05:03:06;;;;;;;21.57;15.00;;;5.30;86.10;;;;;;4908881;29;20225;-83
2021/03/29 05:05:34;;;;;;;23.60;15.77;;;5.30;86.10;;;;;;4911693;29;20234;-84
2021/03/29 05:08:02;;;;;;;33.27;17.67;;;5.30;86.30;;;;;;4910947;29;20673;-83
2021/03/29 05:10:34;;;;;;;28.43;16.13;;;5.40;86.40;;;;;;4907755;29;20266;-83
2021/03/29 05:13:03;;;;;;;31.57;16.13;;;5.50;86.80;;;;;;4909414;29;20289;-84
2021/03/29 05:15:30;;;;;;;24.33;16.03;;;5.40;87.30;;;;;;4908543;29;20243;-81
2021/03/29 05:17:59;;;;;;;28.83;16.73;;;5.40;87.40;;;;;;4910986;29;20234;-85
2021/03/29 05:20:27;;;;;;;23.67;15.07;;;5.40;87.40;;;;;;4915019;29;20207;-84
2021/03/29 05:22:55;;;;;;;23.67;15.77;;;5.40;87.40;;;;;;4920380;29;20685;-84
2021/03/29 05:25:22;;;;;;;24.53;15.90;;;5.50;87.60;;;;;;4937715;29;20344;-83
2021/03/29 05:27:50;;;;;;;25.40;16.87;;;5.50;88.00;;;;;;4930960;29;20214;-83
2021/03/29 05:30:18;;;;;;;28.07;16.73;;;5.50;87.70;;;;;;4916900;29;20206;-84
2021/03/29 05:32:46;;;;;;;27.97;16.23;;;5.60;87.90;;;;;;4916219;29;20704;-84
2021/03/29 05:35:15;;;;;;;28.80;17.17;;;5.60;87.60;;;;;;4913293;29;20217;-82
2021/03/29 05:37:43;;;;;;;28.43;16.90;;;5.60;87.70;;;;;;4916196;29;20472;-81
2021/03/29 05:40:16;;;;;;;27.40;15.73;;;5.60;87.60;;;;;;4920004;29;20464;-83
2021/03/29 05:42:45;;;;;;;25.60;16.20;;;5.60;87.70;;;;;;4893054;29;20490;-81
2021/03/29 05:45:14;;;;;;;22.53;16.07;;;5.70;87.90;;;;;;4910860;29;20280;-82
2021/03/29 05:47:42;;;;;;;24.20;15.33;;;5.80;88.10;;;;;;4900199;29;20236;-85
2021/03/29 05:50:11;;;;;;;23.87;15.80;;;5.90;87.90;;;;;;4927032;29;20242;-81
2021/03/29 05:52:41;;;;;;;25.67;16.17;;;6.00;87.60;;;;;;4915636;29;20259;-81
2021/03/29 05:55:13;;;;;;;24.67;15.67;;;6.10;87.70;;;;;;4920320;29;20207;-85
2021/03/29 05:57:43;;;;;;;29.47;17.50;;;6.20;87.70;;;;;;4909083;29;20207;-81
2021/03/29 06:00:32;;;;;;;28.60;15.50;;;6.30;87.50;;;;;;4906682;29;20208;-83
2021/03/29 06:03:19;;;;;;;25.63;15.57;;;6.40;87.40;;;;;;4915930;29;20215;-82
2021/03/29 06:05:51;;;;;;;26.63;16.37;;;6.50;87.30;;;;;;4907658;29;20232;-85
2021/03/29 06:08:20;;;;;;;29.83;16.73;;;6.60;87.40;;;;;;4910960;29;20199;-81
2021/03/29 06:10:54;;;;;;;26.67;18.50;;;6.60;87.30;;;;;;4911304;29;20246;-80
2021/03/29 06:13:25;;;;;;;29.30;19.37;;;6.60;86.70;;;;;;4917980;29;20215;-82
2021/03/29 06:16:08;;;;;;;37.77;20.10;;;6.60;86.60;;;;;;4911904;29;20273;-82
2021/03/29 06:18:39;;;;;;;32.33;20.10;;;6.70;86.70;;;;;;4910245;29;20225;-79
2021/03/29 06:21:10;;;;;;;31.90;19.67;;;6.80;87.10;;;;;;4919943;29;20707;-81
2021/03/29 06:23:41;;;;;;;28.40;18.00;;;6.90;87.20;;;;;;4919122;29;20245;-82
2021/03/29 06:26:24;;;;;;;27.37;17.00;;;7.00;87.30;;;;;;4898296;29;20567;-80
2021/03/29 06:28:56;;;;;;;25.77;16.40;;;7.10;87.20;;;;;;4901782;29;20299;-83
2021/03/29 06:31:30;;;;;;;25.83;16.57;;;7.10;87.20;;;;;;4908591;29;20284;-81
2021/03/29 06:34:02;;;;;;;22.97;14.50;;;7.20;87.10;;;;;;4909645;29;20241;-82
2021/03/29 06:36:33;;;;;;;21.80;14.20;;;7.30;87.10;;;;;;4933639;29;20205;-82
2021/03/29 06:39:17;;;;;;;25.47;14.80;;;7.40;86.90;;;;;;4930499;29;20202;-83
2021/03/29 06:41:52;;;;;;;21.63;14.70;;;7.50;86.90;;;;;;4926376;29;20300;-81
2021/03/29 06:44:29;;;;;;;22.80;15.03;;;7.60;86.60;;;;;;4926602;29;20504;-82
2021/03/29 06:47:08;;;;;;;22.57;14.17;;;7.60;86.20;;;;;;4934573;29;20235;-80
2021/03/29 06:49:39;;;;;;;24.53;15.17;;;7.70;86.40;;;;;;4922952;29;20210;-82
2021/03/29 06:52:23;;;;;;;22.13;14.10;;;7.90;86.20;;;;;;4936651;29;20222;-81
2021/03/29 06:54:56;;;;;;;22.17;13.63;;;8.00;86.10;;;;;;4933336;29;20214;-83
2021/03/29 06:57:33;;;;;;;22.03;12.93;;;7.90;86.10;;;;;;4921876;29;20218;-83
2021/03/29 07:00:02;;;;;;;23.30;13.97;;;8.10;85.90;;;;;;4915749;29;20364;-82
2021/03/29 07:02:43;;;;;;;19.53;13.13;;;8.10;85.90;;;;;;4922810;29;20206;-83
2021/03/29 07:05:15;;;;;;;21.50;13.73;;;8.20;85.70;;;;;;4931366;29;20205;-83
2021/03/29 07:07:44;;;;;;;20.77;14.10;;;8.20;85.60;;;;;;4929210;29;20508;-82
2021/03/29 07:10:16;;;;;;;25.77;13.50;;;8.30;85.90;;;;;;4927882;29;20206;-81
2021/03/29 07:12:49;;;;;;;19.20;13.70;;;8.30;86.20;;;;;;4888915;29;20206;-81
2021/03/29 07:15:18;;;;;;;18.33;13.03;;;8.30;86.00;;;;;;4925788;29;20206;-83
2021/03/29 07:17:51;;;;;;;22.07;13.77;;;8.30;86.80;;;;;;4924449;29;20434;-82
2021/03/29 07:20:24;;;;;;;21.67;13.90;;;8.30;86.70;;;;;;4912264;29;20234;-82
2021/03/29 07:22:58;;;;;;;22.17;14.10;;;8.30;86.50;;;;;;4920445;29;20635;-83
2021/03/29 07:25:35;;;;;;;22.60;13.93;;;8.30;86.60;;;;;;4915472;29;20687;-83
2021/03/29 07:28:14;;;;;;;19.20;14.03;;;8.30;86.80;;;;;;4912860;29;20347;-83
2021/03/29 07:31:00;;;;;;;21.37;14.03;;;8.20;87.40;;;;;;4916322;29;20771;-82
2021/03/29 07:33:54;;;;;;;20.63;13.17;;;8.20;87.70;;;;;;4922327;29;20213;-84
2021/03/29 07:36:49;;;;;;;23.97;13.90;;;8.10;87.90;;;;;;4902689;29;20833;-85
2021/03/29 07:39:39;;;;;;;21.60;14.07;;;8.10;88.40;;;;;;4908617;29;20211;-84
2021/03/29 07:42:41;;;;;;;21.10;13.57;;;8.10;88.60;;;;;;4922990;29;20231;-82
2021/03/29 07:45:20;;;;;;;20.60;13.13;;;8.10;89.00;;;;;;4927767;29;20206;-86
2021/03/29 07:48:01;;;;;;;20.77;12.67;;;8.20;89.10;;;;;;4914882;29;20551;-84
2021/03/29 07:50:50;;;;;;;17.70;12.80;;;8.40;89.00;;;;;;4931667;29;20220;-81
2021/03/29 07:53:41;;;;;;;21.50;12.37;;;8.60;89.60;;;;;;4917344;29;20217;-83
2021/03/29 07:56:46;;;;;;;20.53;12.67;;;8.80;88.80;;;;;;4908204;29;20463;-83
2021/03/29 07:59:46;;;;;;;22.50;12.07;;;8.90;89.10;;;;;;4925438;29;20866;-82
2021/03/29 08:02:32;;;;;;;16.67;11.60;;;9.10;88.50;;;;;;4910833;29;20434;-83
2021/03/29 08:05:08;;;;;;;18.67;12.03;;;9.30;88.70;;;;;;4890853;29;20337;-83
2021/03/29 08:07:41;;;;;;;19.50;10.80;;;9.40;88.30;;;;;;4911921;29;20218;-83
2021/03/29 08:10:11;;;;;;;16.93;11.10;;;9.40;88.20;;;;;;4893197;29;20204;-82
2021/03/29 08:12:56;;;;;;;14.73;10.20;;;9.40;88.20;;;;;;4917073;29;20198;-81
2021/03/29 08:16:03;;;;;;;15.33;10.00;;;9.60;88.50;;;;;;4913865;29;20611;-83
2021/03/29 08:19:07;;;;;;;14.13;11.00;;;9.70;88.80;;;;;;4906800;29;20213;-82
2021/03/29 08:21:52;;;;;;;15.47;10.37;;;10.00;89.10;;;;;;4921091;29;20218;-84
2021/03/29 08:24:30;;;;;;;15.30;10.77;;;10.20;88.30;;;;;;4913885;29;20324;-84
2021/03/29 08:27:04;;;;;;;19.10;11.30;;;10.40;87.50;;;;;;4910875;29;20799;-85
2021/03/29 08:29:40;;;;;;;17.37;12.17;;;10.40;87.70;;;;;;4911033;29;20245;-84
2021/03/29 08:32:14;;;;;;;19.07;12.17;;;10.50;87.50;;;;;;4914101;29;20240;-83
2021/03/29 08:35:03;;;;;;;17.83;11.20;;;10.50;87.40;;;;;;4905809;29;20222;-82
2021/03/29 08:37:38;;;;;;;18.40;11.70;;;10.50;87.00;;;;;;4913525;29;20206;-82
2021/03/29 08:40:13;;;;;;;18.53;11.33;;;10.50;87.00;;;;;;4903280;29;20213;-84
2021/03/29 08:43:03;;;;;;;15.17;10.73;;;10.50;87.00;;;;;;4888316;29;20239;-84
2021/03/29 08:45:32;;;;;;;15.57;10.23;;;10.50;87.30;;;;;;4909040;29;20299;-82
2021/03/29 08:48:23;;;;;;;17.27;9.67;;;10.70;87.00;;;;;;4917543;29;20229;-82
2021/03/29 08:51:01;;;;;;;17.40;9.87;;;10.90;86.90;;;;;;4881286;29;20929;-85
2021/03/29 08:53:41;;;;;;;13.07;8.90;;;11.10;86.80;;;;;;4892774;29;20220;-84
2021/03/29 08:56:18;;;;;;;11.57;8.13;;;11.20;85.90;;;;;;4901392;29;20196;-83
2021/03/29 08:58:57;;;;;;;13.53;9.10;;;11.40;86.30;;;;;;4892749;29;21406;-86
2021/03/29 09:01:32;;;;;;;15.70;8.50;;;11.60;85.90;;;;;;4888939;29;20218;-84
2021/03/29 09:04:07;;;;;;;9.67;7.20;;;11.70;85.80;;;;;;4902827;29;20222;-84
2021/03/29 09:06:40;;;;;;;13.13;8.30;;;11.80;85.50;;;;;;4907195;29;20330;-83
2021/03/29 09:09:56;;;;;;;12.37;8.53;;;11.70;85.80;;;;;;4915807;29;20227;-83
2021/03/29 09:16:24;;;;;;;10.67;7.80;;;12.00;85.60;;;;;;5054926;23;20517;-84
2021/03/29 09:19:20;;;;;;;13.40;8.13;;;12.10;85.70;;;;;;4881850;29;20583;-86
2021/03/29 09:22:21;;;;;;;10.33;7.80;;;12.20;85.10;;;;;;4897522;29;20278;-83
2021/03/29 09:24:58;;;;;;;16.07;8.80;;;12.30;85.60;;;;;;4893645;29;20211;-86
2021/03/29 09:31:56;;;;;;;11.70;7.80;;;12.50;84.60;;;;;;4856311;29;20206;-87
2021/03/29 09:37:25;;;;;;;14.53;7.90;;;12.70;84.20;;;;;;4973199;28;20809;-85
2021/03/29 09:40:04;;;;;;;12.07;7.20;;;12.80;84.80;;;;;;4972616;28;20515;-87
2021/03/29 09:42:39;;;;;;;10.83;7.00;;;12.80;84.60;;;;;;4975426;28;20272;-83
2021/03/29 09:45:25;;;;;;;12.37;7.90;;;12.70;84.30;;;;;;4953131;28;20866;-85
2021/03/29 09:51:23;;;;;;;9.70;6.83;;;12.50;85.50;;;;;;4931463;28;20208;-82
2021/03/29 09:53:57;;;;;;;9.10;6.53;;;12.40;84.80;;;;;;4930384;28;20205;-86
2021/03/29 09:56:29;;;;;;;11.93;6.83;;;12.50;84.80;;;;;;4948663;28;20306;-82
2021/03/29 09:59:01;;;;;;;10.23;6.43;;;12.40;84.80;;;;;;4932809;28;20730;-84
2021/03/29 10:01:30;;;;;;;12.47;7.13;;;12.30;85.30;;;;;;4953662;28;20236;-85
2021/03/29 10:04:01;;;;;;;13.73;7.97;;;12.20;85.20;;;;;;4955261;28;20200;-86
2021/03/29 10:06:35;;;;;;;9.47;7.17;;;12.30;85.20;;;;;;4960681;28;20303;-86
2021/03/29 10:09:06;;;;;;;14.47;7.93;;;12.40;85.70;;;;;;4959351;28;21484;-85
2021/03/29 10:11:46;;;;;;;12.00;8.27;;;12.50;85.70;;;;;;4965527;28;20212;-84
2021/03/29 10:14:15;;;;;;;11.33;7.90;;;12.50;85.90;;;;;;4944066;28;20288;-84
2021/03/29 10:16:44;;;;;;;10.60;7.90;;;12.50;85.70;;;;;;4949010;28;20208;-83
2021/03/29 10:19:14;;;;;;;11.73;8.60;;;12.50;85.30;;;;;;4949277;28;20231;-84
2021/03/29 10:22:03;;;;;;;10.00;8.47;;;12.30;85.30;;;;;;4948205;28;20220;-84
2021/03/29 10:24:34;;;;;;;9.90;7.77;;;12.30;85.80;;;;;;4958953;28;20216;-85
2021/03/29 10:27:09;;;;;;;12.90;8.27;;;12.30;85.70;;;;;;4958060;28;20787;-84
2021/03/29 10:29:41;;;;;;;14.53;8.47;;;12.40;86.20;;;;;;4957656;28;20203;-84
2021/03/29 10:32:19;;;;;;;12.27;8.43;;;12.50;85.80;;;;;;4979572;28;20300;-83
2021/03/29 10:34:55;;;;;;;12.23;8.40;;;12.60;86.00;;;;;;4970162;28;20262;-85
2021/03/29 10:37:29;;;;;;;10.47;8.13;;;12.80;85.40;;;;;;4974769;28;20237;-83
2021/03/29 10:40:02;;;;;;;11.00;7.50;;;12.90;84.90;;;;;;4966911;28;20212;-83
2021/03/29 10:42:34;;;;;;;11.80;8.57;;;13.10;84.80;;;;;;4956827;28;20205;-83
2021/03/29 10:45:05;;;;;;;10.07;7.90;;;12.90;84.30;;;;;;4960151;28;20205;-84
2021/03/29 10:47:33;;;;;;;13.73;7.97;;;12.70;84.50;;;;;;4952136;28;20228;-83
2021/03/29 10:50:03;;;;;;;13.43;7.83;;;12.40;84.30;;;;;;4946799;28;20286;-83
2021/03/29 10:52:31;;;;;;;13.70;9.43;;;12.30;84.90;;;;;;4961373;28;20648;-85
2021/03/29 10:55:01;;;;;;;14.57;8.83;;;12.30;85.10;;;;;;4959019;28;20213;-85
2021/03/29 10:57:31;;;;;;;15.23;9.97;;;12.40;85.30;;;;;;4959857;28;20263;-84
2021/03/29 11:00:16;;;;;;;14.23;9.93;;;12.40;85.20;;;;;;4968880;28;20593;-83
2021/03/29 11:02:59;;;;;;;12.30;8.70;;;12.40;85.00;;;;;;4968411;28;20229;-84
2021/03/29 11:05:42;;;;;;;15.73;8.80;;;12.50;85.50;;;;;;4955580;28;20219;-85
2021/03/29 11:08:35;;;;;;;13.40;10.03;;;12.50;85.00;;;;;;4965983;28;20533;-85
2021/03/29 11:11:06;;;;;;;11.47;8.37;;;12.60;85.00;;;;;;4964929;28;20204;-83
2021/03/29 11:13:34;;;;;;;13.70;9.53;;;12.50;84.70;;;;;;4946170;28;20558;-86
2021/03/29 11:16:09;;;;;;;12.80;9.13;;;12.40;85.00;;;;;;4971648;28;20201;-85
2021/03/29 11:18:41;;;;;;;13.77;10.33;;;12.30;85.30;;;;;;4950257;28;20295;-84
2021/03/29 11:21:11;;;;;;;14.00;9.10;;;12.20;85.30;;;;;;4958814;28;20717;-83
2021/03/29 11:23:44;;;;;;;13.27;9.83;;;12.30;85.40;;;;;;4964492;28;20390;-82
2021/03/29 11:26:14;;;;;;;19.00;10.50;;;12.20;85.90;;;;;;4969848;28;20212;-85
2021/03/29 11:28:46;;;;;;;15.53;11.03;;;12.20;87.00;;;;;;4956750;28;20228;-83
2021/03/29 11:31:14;;;;;;;14.23;10.70;;;12.40;86.00;;;;;;4965944;28;20216;-85
2021/03/29 11:33:42;;;;;;;14.30;10.50;;;12.20;86.10;;;;;;4970088;28;20527;-87
2021/03/29 11:36:10;;;;;;;16.23;10.87;;;12.10;85.90;;;;;;4946077;28;21034;-83
2021/03/29 11:38:39;;;;;;;14.73;10.83;;;12.10;86.10;;;;;;4975011;28;20208;-83
2021/03/29 11:41:28;;;;;;;17.13;11.37;;;12.10;86.10;;;;;;4982160;28;20404;-87
2021/03/29 11:43:56;;;;;;;18.00;11.50;;;12.10;86.50;;;;;;4958058;28;20201;-85
2021/03/29 11:46:24;;;;;;;16.50;11.43;;;12.20;86.40;;;;;;4952252;28;20206;-85
2021/03/29 11:48:53;;;;;;;19.27;11.47;;;12.10;85.20;;;;;;4960608;28;20290;-82
2021/03/29 11:51:22;;;;;;;18.23;12.37;;;12.00;85.20;;;;;;4961484;28;20214;-84
2021/03/29 11:53:50;;;;;;;19.70;12.77;;;12.00;85.20;;;;;;4957940;28;20466;-85
2021/03/29 11:56:19;;;;;;;18.23;12.53;;;11.90;85.40;;;;;;4950455;28;20232;-85
2021/03/29 11:59:17;;;;;;;18.17;13.37;;;11.80;85.50;;;;;;4965649;28;20765;-88
2021/03/29 12:01:53;;;;;;;15.87;12.23;;;11.80;85.70;;;;;;4955657;28;20202;-89
2021/03/29 12:04:37;;;;;;;16.97;12.73;;;11.80;85.60;;;;;;4966994;28;20227;-86
2021/03/29 12:07:19;;;;;;;18.43;12.43;;;11.90;85.60;;;;;;4989310;28;20323;-86
2021/03/29 12:11:47;;;;;;;26.53;13.70;;;12.20;85.40;;;;;;4974593;28;20209;-87
2021/03/29 12:12:45;;;;;;;19.97;13.43;;;12.20;85.30;;;;;;4990890;28;20208;-85
2021/03/29 12:15:36;;;;;;;20.10;13.67;;;12.30;85.10;;;;;;4991100;28;20492;-89
2021/03/29 12:18:35;;;;;;;19.63;12.93;;;12.40;84.90;;;;;;4896359;29;20228;-87
2021/03/29 12:21:21;;;;;;;21.07;14.27;;;12.50;85.00;;;;;;4893667;29;20260;-84
2021/03/29 12:23:52;;;;;;;20.23;13.90;;;12.60;84.50;;;;;;4885644;29;21043;-83
2021/03/29 12:26:22;;;;;;;19.37;14.10;;;12.50;84.20;;;;;;4878696;29;20318;-86
2021/03/29 12:28:52;;;;;;;20.57;14.70;;;12.50;84.30;;;;;;4893376;29;20294;-86
2021/03/29 12:31:22;;;;;;;20.73;14.37;;;12.50;84.60;;;;;;4891831;29;20195;-85
2021/03/29 12:33:52;;;;;;;23.70;16.00;;;12.50;84.40;;;;;;4902917;29;20218;-84
2021/03/29 12:36:35;;;;;;;23.83;15.73;;;12.50;84.20;;;;;;4899818;29;20295;-82
2021/03/29 12:39:14;;;;;;;24.10;14.90;;;12.60;84.20;;;;;;4890310;29;20218;-84
2021/03/29 12:41:52;;;;;;;26.50;16.43;;;12.70;84.30;;;;;;4889846;29;20851;-88
2021/03/29 12:44:24;;;;;;;22.73;15.47;;;12.80;84.10;;;;;;4885116;29;20215;-87
2021/03/29 12:46:57;;;;;;;23.63;16.00;;;12.90;84.20;;;;;;4878509;29;20360;-88
2021/03/29 12:49:25;;;;;;;24.10;16.30;;;13.10;84.10;;;;;;4934702;28;20529;-85
2021/03/29 12:51:56;;;;;;;23.20;16.17;;;13.20;84.00;;;;;;4966353;28;20255;-84
2021/03/29 12:54:28;;;;;;;22.00;16.33;;;13.20;83.70;;;;;;4981900;28;20223;-87
2021/03/29 12:57:00;;;;;;;23.90;16.27;;;13.30;83.70;;;;;;4956208;28;20216;-85
2021/03/29 12:59:33;;;;;;;21.27;15.83;;;13.30;83.90;;;;;;4974180;28;20237;-86
2021/03/29 13:02:05;;;;;;;24.83;16.40;;;13.40;83.80;;;;;;4962452;28;20287;-87
2021/03/29 13:04:38;;;;;;;23.53;17.13;;;13.40;83.70;;;;;;4962944;28;20603;-86
2021/03/29 13:07:20;;;;;;;22.93;17.10;;;13.40;83.90;;;;;;4968216;28;20264;-84
2021/03/29 13:09:58;;;;;;;24.33;17.00;;;13.40;83.80;;;;;;4965016;28;20720;-88
2021/03/29 13:12:27;;;;;;;26.77;17.03;;;13.20;83.70;;;;;;4973727;28;20201;-88
2021/03/29 13:15:06;;;;;;;24.83;16.53;;;13.10;83.80;;;;;;4974571;28;20710;-84
2021/03/29 13:17:43;;;;;;;22.57;16.33;;;13.00;83.90;;;;;;4945436;28;20228;-85
2021/03/29 13:21:03;;;;;;;25.07;18.53;;;13.10;84.50;;;;;;4973434;28;20328;-87
2021/03/29 13:23:32;;;;;;;27.97;18.73;;;13.10;84.60;;;;;;4945989;28;20205;-86